South Lyme, CT (06376)

1:15 PM EDT on May 06, 2015 (GMT -0400)
Giants Neck Beach | | Change Station
CLOSE
Current Station
Personal Weather Station
Location: Niantic, CT
Elevation: 78 ft
Nearby Weather Stations

Elev 78 ft 41.30 °N, 72.23 °W | Updated 5 minutes ago

Overcast
Overcast
62.0 °F
Feels Like 62.0 °F
N
9.0
Wind Variable Wind from SE
Gusts 16.0 mph

Today
High -- | Low -- °F
--% Chance of Precip.
Yesterday
High -- | Low -- °F
Precip. -- in
5:40 AM 7:51 PM
Waning Gibbous, 93% visible
Pressure 30.27 in
Visibility 10.0 miles
Clouds Mostly Cloudy 4600 ft
Overcast 10000 ft
Dew Point 40 °F
Humidity 44%
Rainfall 0.00 in
Snow Depth Not available.
UV 3 out of 12
Pollen 8.80 out of 12
Air Quality Not available.
Flu Activity Widespread
METAR KGON 061656Z 11011KT 10SM BKN046 OVC100 19/02 A3027 RMK AO2 SLP250 T01890022

More Conditions Fewer Conditions

Pressure 30.27 in
Visibility 10.0 miles
Clouds Mostly Cloudy 4600 ft
Overcast 10000 ft
Dew Point 40 °F
Humidity 44%
Rainfall 0.00 in
Snow Depth Not available.
UV 3 out of 12
Pollen 8.80 out of 12
Air Quality Not available.
Flu Activity Widespread
METAR KGON 061656Z 11011KT 10SM BKN046 OVC100 19/02 A3027 RMK AO2 SLP250 T01890022

More Conditions Fewer Conditions

10-Day Weather Forecast

Almanac

Astronomy

May. 06, 2015 Rise Set
Actual Time
Civil Twilight
Nautical Twilight
Astronomical Twilight
Moon
Length of Visible Light
Length of Day
Tomorrow will be .
, % of the Moon is Illuminated

Today's Extremes

State Highs State Lows

Community

WunderPhotos

Upload Photos

1,818,956 photos uploaded!

WunderBlogs® & News

Nearby

Air Quality

  Air Quality AQ Index Pollutant
Not available.

Snow Depth

Station Depth Elevation

Earthquake Activity

City Distance Mag. Time & Date
Minimum magnitude displayed is 2.5.

Coastal Water Temperatures

Place Temperature

Stations

Nearby Weather Stations

Station Location Temp. Windchill Dew Point Humidity Wind Precip. Elev Updated Type